Aeroporto :
LOGIN :

Iscrizione | Disclaimer

   EN    FR    IT 

 










Sommario :    VFR   VFR Marginale   IFR   IFR Intensivo   IFR Molto Intensivo
Visibilità : 
Base nubi : 
>= 8 km
>= 3000ft
5 / 8 km
1000 / 3000 ft
1500m / 5 km
500 / 1000 ft
800 / 1500m
200 / 500 ft
< 800m
< 200 ft
Simboli :   Temporali  Nebbia  Neve Forte  Precipitazioni Forti  Vento > 20 kt
SIGMETs :   Varie  Temporali  Ghiacco  Turbolenza  Onda orograficha  Ceneri Vulcaniche






- Altitudine del aeroporto : 36 ft
- Codice IATA : LTQ


LFAT - Le Touquet

ULTIMO METAR :
  • 241730Z AUTO 25008KT 210V310 9000 SCT014 BKN074 14/10 Q1010 NOSIG

METARs OBSOLETI :
  • 241700Z AUTO 24011KT 9000 FEW015 14/10 Q1010 NOSIG
  • 241630Z AUTO 25010KT 200V280 8000 FEW015 15/10 Q1010 NOSIG
  • 241600Z AUTO 25011KT 220V310 8000 BKN015 15/10 Q1010 NOSIG
  • 241530Z AUTO 26011KT 230V300 8000 BKN016 15/10 Q1010 NOSIG
  • 241500Z AUTO 27012KT 220V300 8000 BKN015 15/11 Q1009 NOSIG
  • 241430Z AUTO 26012KT 220V310 8000 BKN016 15/10 Q1009 NOSIG

TAF TAF LFAT
Valido dal 24 a 15 ore il 25 a 00 ore UTC


241400Z 2415/2424 25012KT 9999 BKN017
ATIS : +33 3 21 06 62 84



MetMap, La meteo Aeronautica in un colpo d'occhio ! - Copyright ORBIFLY Dicembre 2007 - Disclaimer

ORBIFLY MET'MAP TEAM :

Programmazione e sviluppo : Alexandra Zaïnal
Concezione : Baudouin d'Aumeries
Supporto tecnico e logistico : Manuel Goepfert
Aiuto : Marc-Olivier Méhu
Aiuto per la traduzione : Arnaldo La Scala

Contatto : metmap@orbifly.com




FONTI E CREDITI :

   NOAA